createdAt,value
2019-01-12T00:00:02.363Z,3.20
2019-01-12T00:02:30.569Z,3.10
2019-01-12T00:04:58.853Z,3.20
2019-01-12T00:07:27.578Z,3.20
2019-01-12T00:09:55.857Z,3.10
2019-01-12T00:12:24.418Z,3.10
2019-01-12T00:14:52.743Z,3.20
2019-01-12T00:17:21.085Z,3.20
2019-01-12T00:19:49.341Z,3.20
2019-01-12T00:22:18.315Z,3.30
2019-01-12T00:24:46.570Z,3.30
2019-01-12T00:27:15.977Z,3.30
2019-01-12T00:29:44.245Z,3.30
2019-01-12T00:32:12.501Z,3.30
2019-01-12T00:34:40.753Z,3.20
2019-01-12T00:37:16.085Z,3.20
2019-01-12T00:39:44.379Z,3.30
2019-01-12T00:42:12.632Z,3.30
2019-01-12T00:44:40.875Z,3.20
2019-01-12T00:47:09.982Z,3.30
2019-01-12T00:49:38.220Z,3.30
2019-01-12T00:52:06.480Z,3.40
2019-01-12T00:54:38.536Z,3.40
2019-01-12T00:57:02.999Z,3.40
2019-01-12T00:59:31.365Z,3.50
2019-01-12T01:01:59.884Z,3.50
2019-01-12T01:04:28.107Z,3.50
2019-01-12T01:06:56.433Z,3.50
2019-01-12T01:09:24.655Z,3.40
2019-01-12T01:11:53.886Z,3.40
2019-01-12T01:14:23.805Z,3.40
2019-01-12T01:16:52.081Z,3.40
2019-01-12T01:19:20.330Z,3.50
2019-01-12T01:21:48.529Z,3.50
2019-01-12T01:24:16.813Z,3.50
2019-01-12T01:26:45.101Z,3.50
2019-01-12T01:29:13.315Z,3.50
2019-01-12T01:31:41.509Z,3.60
2019-01-12T01:34:09.673Z,3.50
2019-01-12T01:36:37.929Z,3.50
2019-01-12T01:39:08.425Z,3.50
2019-01-12T01:41:36.680Z,3.50
2019-01-12T01:44:04.916Z,3.60
2019-01-12T01:46:33.171Z,3.50
2019-01-12T01:49:01.374Z,3.60
2019-01-12T01:51:29.669Z,3.50
2019-01-12T01:53:57.994Z,3.60
2019-01-12T01:56:26.362Z,3.60
2019-01-12T01:58:54.613Z,3.60
2019-01-12T02:01:22.870Z,3.70
2019-01-12T02:03:51.081Z,3.70
2019-01-12T02:06:19.417Z,3.70
2019-01-12T02:08:48.553Z,3.60
2019-01-12T02:11:17.462Z,3.60
2019-01-12T02:13:45.762Z,3.60
2019-01-12T02:16:14.069Z,3.60
2019-01-12T02:18:42.285Z,3.60
2019-01-12T02:21:10.513Z,3.50
2019-01-12T02:23:38.821Z,3.50
2019-01-12T02:26:07.202Z,3.50
2019-01-12T02:28:35.456Z,3.50
2019-01-12T02:31:03.706Z,3.60
2019-01-12T02:33:31.977Z,3.60
2019-01-12T02:36:00.221Z,3.60
2019-01-12T02:38:28.444Z,3.60
2019-01-12T02:40:56.704Z,3.60
2019-01-12T02:43:24.916Z,3.50
2019-01-12T02:45:53.209Z,3.50
2019-01-12T02:48:21.466Z,3.60
2019-01-12T02:50:49.762Z,3.60
2019-01-12T02:53:17.984Z,3.60
2019-01-12T02:55:46.218Z,3.60
2019-01-12T02:58:15.692Z,3.60
2019-01-12T03:00:43.888Z,3.60
2019-01-12T03:03:12.857Z,3.60
2019-01-12T03:05:41.113Z,3.60
2019-01-12T03:08:09.314Z,3.60
2019-01-12T03:10:37.557Z,3.60
2019-01-12T03:13:05.865Z,3.70
2019-01-12T03:15:34.130Z,3.70
2019-01-12T03:18:02.396Z,3.60
2019-01-12T03:20:30.642Z,3.70
2019-01-12T03:22:59.073Z,3.60
2019-01-12T03:25:28.057Z,3.70
2019-01-12T03:27:56.376Z,3.70
2019-01-12T03:30:24.617Z,3.70
2019-01-12T03:32:52.800Z,3.70
2019-01-12T03:35:21.069Z,3.60
2019-01-12T03:37:49.325Z,3.60
2019-01-12T03:40:19.250Z,3.60
2019-01-12T03:42:47.593Z,3.60
2019-01-12T03:45:16.682Z,3.60
2019-01-12T03:47:44.915Z,3.70
2019-01-12T03:50:13.269Z,3.70
2019-01-12T03:52:41.582Z,3.70
2019-01-12T03:55:10.588Z,3.70
2019-01-12T03:57:38.845Z,3.70
2019-01-12T04:00:11.936Z,3.70
2019-01-12T04:02:40.190Z,3.70
2019-01-12T04:05:08.648Z,3.70
2019-01-12T04:07:36.878Z,3.60
2019-01-12T04:10:06.941Z,3.70
2019-01-12T04:12:35.173Z,3.60
2019-01-12T04:15:04.521Z,3.60
2019-01-12T04:17:33.370Z,3.60
2019-01-12T04:20:08.236Z,3.70
2019-01-12T04:22:37.148Z,3.60
2019-01-12T04:25:05.410Z,3.70
2019-01-12T04:27:33.642Z,3.70
2019-01-12T04:30:01.843Z,3.70
2019-01-12T04:32:30.178Z,3.70
2019-01-12T04:34:58.493Z,3.80
2019-01-12T04:37:26.726Z,3.80
2019-01-12T04:39:55.001Z,3.70
2019-01-12T04:42:23.165Z,3.60
2019-01-12T04:44:52.087Z,3.70
2019-01-12T04:47:20.304Z,3.70
2019-01-12T04:49:55.358Z,3.70
2019-01-12T04:52:23.972Z,3.70
2019-01-12T04:54:53.065Z,3.60
2019-01-12T04:57:21.327Z,3.60
2019-01-12T04:59:49.894Z,3.60
2019-01-12T05:02:18.101Z,3.60
2019-01-12T05:04:46.307Z,3.60
2019-01-12T05:07:20.996Z,3.60
2019-01-12T05:09:55.838Z,3.70
2019-01-12T05:12:24.297Z,3.70
2019-01-12T05:14:52.673Z,3.70
2019-01-12T05:17:20.936Z,3.70
2019-01-12T05:19:49.208Z,3.80
2019-01-12T05:22:17.537Z,3.80
2019-01-12T05:24:45.782Z,3.80
2019-01-12T05:27:14.099Z,3.80
2019-01-12T05:29:44.385Z,3.80
2019-01-12T05:32:12.681Z,3.90
2019-01-12T05:34:41.624Z,3.90
2019-01-12T05:37:12.041Z,3.90
2019-01-12T05:39:40.329Z,3.90
2019-01-12T05:42:08.574Z,3.80
2019-01-12T05:44:36.810Z,3.90
2019-01-12T05:47:05.055Z,4.00
2019-01-12T05:49:33.802Z,4.00
2019-01-12T05:52:02.061Z,4.00
2019-01-12T05:54:30.354Z,4.00
2019-01-12T05:56:58.601Z,3.90
2019-01-12T05:59:26.809Z,3.90
2019-01-12T06:01:55.042Z,3.90
2019-01-12T06:04:23.247Z,3.90
2019-01-12T06:09:26.110Z,3.90
2019-01-12T06:11:54.338Z,3.90
2019-01-12T06:14:22.602Z,3.90
2019-01-12T06:16:50.991Z,3.90
2019-01-12T06:19:20.153Z,3.90
2019-01-12T06:21:48.362Z,3.90
2019-01-12T06:24:16.625Z,3.90
2019-01-12T06:26:44.942Z,3.90
2019-01-12T06:29:13.257Z,3.90
2019-01-12T06:31:41.602Z,3.90
2019-01-12T06:34:09.865Z,3.90
2019-01-12T06:36:38.182Z,3.90
2019-01-12T06:39:08.864Z,3.80
2019-01-12T06:41:37.280Z,3.80
2019-01-12T06:44:06.313Z,3.80
2019-01-12T06:46:34.523Z,3.80
2019-01-12T06:49:02.758Z,3.80
2019-01-12T06:51:37.272Z,3.80
2019-01-12T06:54:05.566Z,3.80
2019-01-12T06:56:33.809Z,3.90
2019-01-12T06:59:02.033Z,3.90
2019-01-12T07:01:30.266Z,3.80
2019-01-12T07:03:58.514Z,3.90
2019-01-12T07:06:26.782Z,3.80
2019-01-12T07:08:55.326Z,3.80
2019-01-12T07:11:24.009Z,3.70
2019-01-12T07:13:52.270Z,3.70
2019-01-12T07:16:21.159Z,3.70
2019-01-12T07:18:49.405Z,3.70
2019-01-12T07:21:17.709Z,3.70
2019-01-12T07:23:45.905Z,3.70
2019-01-12T07:26:17.656Z,3.80
2019-01-12T07:28:43.305Z,3.80
2019-01-12T07:31:11.526Z,3.80
2019-01-12T07:33:40.584Z,3.90
2019-01-12T07:36:08.822Z,3.90
2019-01-12T07:38:37.074Z,3.90
2019-01-12T07:41:05.357Z,4.00
2019-01-12T07:43:33.626Z,4.00
2019-01-12T07:46:01.922Z,4.00
2019-01-12T07:48:30.870Z,4.00
2019-01-12T07:50:59.737Z,4.00
2019-01-12T07:53:27.961Z,4.00
2019-01-12T07:55:56.214Z,4.10
2019-01-12T07:58:24.477Z,4.00
2019-01-12T08:00:59.341Z,4.10
2019-01-12T08:03:27.589Z,4.00
2019-01-12T08:05:55.813Z,4.10
2019-01-12T08:08:24.955Z,4.10
2019-01-12T08:10:53.336Z,4.10
2019-01-12T08:13:21.874Z,4.20
2019-01-12T08:15:50.109Z,4.30
2019-01-12T08:18:18.370Z,4.30
2019-01-12T08:20:46.637Z,4.40
2019-01-12T08:23:14.853Z,4.30
2019-01-12T08:25:43.121Z,4.40
2019-01-12T08:28:11.393Z,4.50
2019-01-12T08:30:40.357Z,4.50
2019-01-12T08:33:09.140Z,4.60
2019-01-12T08:35:37.405Z,4.60
2019-01-12T08:38:05.672Z,4.50
2019-01-12T08:40:34.007Z,4.50
2019-01-12T08:43:02.285Z,4.50
2019-01-12T08:45:30.566Z,4.50
2019-01-12T08:47:58.834Z,4.60
2019-01-12T08:50:27.132Z,4.60
2019-01-12T08:52:55.406Z,4.70
2019-01-12T08:55:24.692Z,4.70
2019-01-12T08:57:51.866Z,4.70
2019-01-12T09:00:23.157Z,4.80
2019-01-12T09:02:51.397Z,4.80
2019-01-12T09:05:19.708Z,4.80
2019-01-12T09:07:47.942Z,4.80
2019-01-12T09:10:19.836Z,4.80
2019-01-12T09:12:47.161Z,4.80
2019-01-12T09:15:15.444Z,5.00
2019-01-12T09:17:43.747Z,5.00
2019-01-12T09:20:12.305Z,5.10
2019-01-12T09:22:40.605Z,5.10
2019-01-12T09:25:11.811Z,5.20
2019-01-12T09:27:40.115Z,5.20
2019-01-12T09:30:12.325Z,5.30
2019-01-12T09:32:40.607Z,5.30
2019-01-12T09:35:09.430Z,5.40
2019-01-12T09:37:38.317Z,5.40
2019-01-12T09:40:09.009Z,5.50
2019-01-12T09:42:37.809Z,5.50
2019-01-12T09:45:07.724Z,5.50
2019-01-12T09:47:35.989Z,5.60
2019-01-12T09:50:05.565Z,5.60
2019-01-12T09:52:33.865Z,5.70
2019-01-12T09:55:02.149Z,5.80
2019-01-12T09:57:31.029Z,5.80
2019-01-12T09:59:59.289Z,5.70
2019-01-12T10:02:27.545Z,5.80
2019-01-12T10:04:56.185Z,5.80
2019-01-12T10:07:24.445Z,5.80
2019-01-12T10:09:52.690Z,5.70
2019-01-12T10:12:21.747Z,5.80
2019-01-12T10:14:49.995Z,5.80
2019-01-12T10:17:18.244Z,5.80
2019-01-12T10:19:46.451Z,5.80
2019-01-12T10:22:15.625Z,5.80
2019-01-12T10:24:43.824Z,5.80
2019-01-12T10:27:12.095Z,5.90
2019-01-12T10:29:40.355Z,5.80
2019-01-12T10:32:08.976Z,5.80
2019-01-12T10:34:37.241Z,5.70
2019-01-12T10:37:05.608Z,5.70
2019-01-12T10:39:33.889Z,5.60
2019-01-12T10:42:02.134Z,5.70
2019-01-12T10:44:30.417Z,5.80
2019-01-12T10:46:58.773Z,5.80
2019-01-12T10:49:27.109Z,5.80
2019-01-12T10:51:55.380Z,5.90
2019-01-12T10:54:23.645Z,6.00
2019-01-12T10:56:51.897Z,5.80
2019-01-12T10:59:20.822Z,5.80
2019-01-12T11:01:49.129Z,5.90
2019-01-12T11:04:17.385Z,5.90
2019-01-12T11:06:45.678Z,5.80
2019-01-12T11:09:13.927Z,5.80
2019-01-12T11:11:42.269Z,5.80
2019-01-12T11:14:10.497Z,5.70
2019-01-12T11:16:39.242Z,5.70
2019-01-12T11:19:07.486Z,5.70
2019-01-12T11:21:35.709Z,5.70
2019-01-12T11:24:03.950Z,5.60
2019-01-12T11:26:32.213Z,5.60
2019-01-12T11:29:02.122Z,5.60
2019-01-12T11:31:30.341Z,5.60
2019-01-12T11:33:58.574Z,5.60
2019-01-12T11:36:27.684Z,5.60
2019-01-12T11:38:55.985Z,5.60
2019-01-12T11:41:24.246Z,5.60
2019-01-12T11:43:52.607Z,5.60
2019-01-12T11:46:20.975Z,5.60
2019-01-12T11:48:49.221Z,5.60
2019-01-12T11:51:17.473Z,5.60
2019-01-12T11:53:46.269Z,5.60
2019-01-12T11:56:14.518Z,5.60
2019-01-12T11:58:42.731Z,5.50
2019-01-12T12:01:10.964Z,5.60
2019-01-12T12:03:39.817Z,5.60
2019-01-12T12:06:08.077Z,5.60
2019-01-12T12:08:36.365Z,5.60
2019-01-12T12:11:04.987Z,5.70
2019-01-12T12:13:33.201Z,5.80
2019-01-12T12:16:02.326Z,5.80
2019-01-12T12:18:30.609Z,5.80
2019-01-12T12:20:58.954Z,5.80
2019-01-12T12:23:27.267Z,5.90
2019-01-12T12:25:55.530Z,5.90
2019-01-12T12:28:23.761Z,6.00
2019-01-12T12:30:52.003Z,6.10
2019-01-12T12:33:20.400Z,6.00
2019-01-12T12:35:48.612Z,6.00
2019-01-12T12:38:16.853Z,5.90
2019-01-12T12:40:45.060Z,5.90
2019-01-12T12:43:13.321Z,5.90
2019-01-12T12:45:41.602Z,5.90
2019-01-12T12:48:09.809Z,5.90
2019-01-12T12:50:38.622Z,5.80
2019-01-12T12:53:06.905Z,5.70
2019-01-12T12:55:35.106Z,5.70
2019-01-12T12:58:03.680Z,5.70
2019-01-12T13:00:33.131Z,5.70
2019-01-12T13:03:01.456Z,5.70
2019-01-12T13:05:29.774Z,5.70
2019-01-12T13:07:58.054Z,5.60
2019-01-12T13:10:29.609Z,5.60
2019-01-12T13:12:59.089Z,5.60
2019-01-12T13:15:27.318Z,5.60
2019-01-12T13:17:55.590Z,5.70
2019-01-12T13:20:23.873Z,5.60
2019-01-12T13:22:52.127Z,5.70
2019-01-12T13:25:20.377Z,5.60
2019-01-12T13:27:48.704Z,5.60
2019-01-12T13:30:20.181Z,5.60
2019-01-12T13:32:48.478Z,5.70
2019-01-12T13:35:16.777Z,5.60
2019-01-12T13:37:45.137Z,5.50
2019-01-12T13:40:15.433Z,5.50
2019-01-12T13:42:43.714Z,5.60
2019-01-12T13:45:13.917Z,5.60
2019-01-12T13:47:42.246Z,5.50
2019-01-12T13:50:12.124Z,5.50
2019-01-12T13:52:40.410Z,5.40
2019-01-12T13:55:11.526Z,5.40
2019-01-12T13:57:47.067Z,5.40
2019-01-12T14:00:12.145Z,5.40
2019-01-12T14:02:40.458Z,5.30
2019-01-12T14:05:08.886Z,5.30
2019-01-12T14:07:37.297Z,5.30
2019-01-12T14:10:08.014Z,5.30
2019-01-12T14:12:36.291Z,5.20
2019-01-12T14:15:06.718Z,5.20
2019-01-12T14:17:35.028Z,5.10
2019-01-12T14:20:03.993Z,5.10
2019-01-12T14:22:32.250Z,5.10
2019-01-12T14:25:00.454Z,5.00
2019-01-12T14:27:28.670Z,4.90
2019-01-12T14:29:57.976Z,4.90
2019-01-12T14:32:26.258Z,4.90
2019-01-12T14:34:54.584Z,4.90
2019-01-12T14:37:22.989Z,4.90
2019-01-12T14:39:51.298Z,4.90
2019-01-12T14:42:19.594Z,5.00
2019-01-12T14:44:47.878Z,4.90
2019-01-12T14:47:16.122Z,4.90
2019-01-12T14:49:44.370Z,5.00
2019-01-12T14:52:12.666Z,5.00
2019-01-12T14:54:40.902Z,4.90
2019-01-12T14:57:09.206Z,4.90
2019-01-12T14:59:37.523Z,4.90
2019-01-12T15:02:05.809Z,5.00
2019-01-12T15:04:34.119Z,5.00
2019-01-12T15:07:02.403Z,5.00
2019-01-12T15:09:30.743Z,5.00
2019-01-12T15:11:59.033Z,5.10
2019-01-12T15:14:27.262Z,5.10
2019-01-12T15:16:55.484Z,5.00
2019-01-12T15:19:23.803Z,4.90
2019-01-12T15:21:52.111Z,4.90
2019-01-12T15:24:20.434Z,4.90
2019-01-12T15:26:48.654Z,5.00
2019-01-12T15:29:16.926Z,4.90
2019-01-12T15:31:45.490Z,4.90
2019-01-12T15:34:14.062Z,4.90
2019-01-12T15:36:42.418Z,4.80
2019-01-12T15:39:10.711Z,4.80
2019-01-12T15:41:38.966Z,4.70
2019-01-12T15:44:07.217Z,4.70
2019-01-12T15:46:35.463Z,4.80
2019-01-12T15:49:03.706Z,4.70
2019-01-12T15:51:31.924Z,4.70
2019-01-12T15:54:00.080Z,4.70
2019-01-12T15:56:28.279Z,4.70
2019-01-12T15:58:56.572Z,4.80
2019-01-12T16:01:26.308Z,4.80
2019-01-12T16:03:54.599Z,4.80
2019-01-12T16:06:22.835Z,4.90
2019-01-12T16:08:51.142Z,4.90
2019-01-12T16:11:25.817Z,4.90
2019-01-12T16:13:54.082Z,4.90
2019-01-12T16:16:22.310Z,4.90
2019-01-12T16:18:50.574Z,5.00
2019-01-12T16:21:18.860Z,5.00
2019-01-12T16:23:47.128Z,5.00
2019-01-12T16:26:15.318Z,5.00
2019-01-12T16:28:43.566Z,5.10
2019-01-12T16:31:11.945Z,5.10
2019-01-12T16:33:40.119Z,5.10
2019-01-12T16:36:08.336Z,5.10
2019-01-12T16:38:37.217Z,5.10
2019-01-12T16:41:05.471Z,5.20
2019-01-12T16:43:33.679Z,5.20
2019-01-12T16:46:01.918Z,5.20
2019-01-12T16:48:30.134Z,5.20
2019-01-12T16:50:58.443Z,5.20
2019-01-12T16:53:26.714Z,5.20
2019-01-12T16:55:54.969Z,5.20
2019-01-12T16:58:30.194Z,5.20
2019-01-12T17:00:52.585Z,5.20
2019-01-12T17:03:27.583Z,5.20
2019-01-12T17:05:55.894Z,5.20
2019-01-12T17:08:24.127Z,5.20
2019-01-12T17:10:52.379Z,5.20
2019-01-12T17:13:20.851Z,5.20
2019-01-12T17:15:49.152Z,5.20
2019-01-12T17:18:17.402Z,5.20
2019-01-12T17:20:45.706Z,5.20
2019-01-12T17:23:14.030Z,5.20
2019-01-12T17:25:42.267Z,5.10
2019-01-12T17:28:10.566Z,5.10
2019-01-12T17:30:39.297Z,5.10
2019-01-12T17:33:08.290Z,5.10
2019-01-12T17:35:36.802Z,5.10
2019-01-12T17:38:05.898Z,5.10
2019-01-12T17:40:34.163Z,5.10
2019-01-12T17:43:02.422Z,5.10
2019-01-12T17:45:31.580Z,5.10
2019-01-12T17:47:59.846Z,5.10
2019-01-12T17:50:28.322Z,5.00
2019-01-12T17:52:57.182Z,5.10
2019-01-12T17:55:26.562Z,5.10
2019-01-12T17:57:54.823Z,5.10
2019-01-12T18:00:28.595Z,5.10
2019-01-12T18:02:56.856Z,5.10
2019-01-12T18:05:25.181Z,5.10
2019-01-12T18:07:53.424Z,5.10
2019-01-12T18:10:21.729Z,5.10
2019-01-12T18:12:50.014Z,5.10
2019-01-12T18:15:18.367Z,5.10
2019-01-12T18:17:46.611Z,5.10
2019-01-12T18:20:15.147Z,5.10
2019-01-12T18:22:43.447Z,5.10
2019-01-12T18:25:12.555Z,5.10
2019-01-12T18:27:40.814Z,5.10
2019-01-12T18:30:12.839Z,5.00
2019-01-12T18:32:41.114Z,5.10
2019-01-12T18:35:10.103Z,5.10
2019-01-12T18:37:38.378Z,5.10
2019-01-12T18:40:09.123Z,5.10
2019-01-12T18:42:37.389Z,5.10
2019-01-12T18:45:06.266Z,5.10
2019-01-12T18:47:34.582Z,5.00
2019-01-12T18:50:02.887Z,5.00
2019-01-12T18:52:31.180Z,5.00
2019-01-12T18:54:59.470Z,5.00
2019-01-12T18:57:27.703Z,4.90
2019-01-12T18:59:55.979Z,4.80
2019-01-12T19:02:24.235Z,4.80
2019-01-12T19:04:52.481Z,4.80
2019-01-12T19:07:20.726Z,4.80
2019-01-12T19:09:49.026Z,4.80
2019-01-12T19:12:18.453Z,4.90
2019-01-12T19:14:46.674Z,4.90
2019-01-12T19:17:14.950Z,4.90
2019-01-12T19:19:43.214Z,4.90
2019-01-12T19:22:11.554Z,5.00
2019-01-12T19:24:46.352Z,5.00
2019-01-12T19:27:14.647Z,5.00
2019-01-12T19:29:43.624Z,4.90
2019-01-12T19:32:11.950Z,5.00
2019-01-12T19:34:40.991Z,5.00
2019-01-12T19:37:09.446Z,5.00
2019-01-12T19:39:37.659Z,4.90
2019-01-12T19:42:06.150Z,5.00
2019-01-12T19:44:34.490Z,4.90
2019-01-12T19:47:02.818Z,5.00
2019-01-12T19:49:31.138Z,5.00
2019-01-12T19:51:59.369Z,5.10
2019-01-12T19:54:27.657Z,5.00
2019-01-12T19:56:55.930Z,5.00
2019-01-12T19:59:25.262Z,5.10
2019-01-12T20:01:53.986Z,5.10
2019-01-12T20:04:22.243Z,5.10
2019-01-12T20:06:50.551Z,5.10
2019-01-12T20:09:18.782Z,5.10
2019-01-12T20:11:47.067Z,5.20
2019-01-12T20:14:15.370Z,5.10
2019-01-12T20:16:43.589Z,5.20
2019-01-12T20:19:11.853Z,5.20
2019-01-12T20:21:40.171Z,5.20
2019-01-12T20:24:15.163Z,5.20
2019-01-12T20:26:43.506Z,5.30
2019-01-12T20:29:11.961Z,5.20
2019-01-12T20:31:53.003Z,5.20
2019-01-12T20:34:29.905Z,5.20
2019-01-12T20:37:07.952Z,5.20
2019-01-12T20:39:45.039Z,5.20
2019-01-12T20:42:28.493Z,5.30
2019-01-12T20:45:12.613Z,5.30
2019-01-12T20:47:52.109Z,5.30
2019-01-12T20:50:33.359Z,5.30
2019-01-12T20:55:47.115Z,5.30
2019-01-12T20:59:28.619Z,5.30
2019-01-12T21:02:31.290Z,5.30
2019-01-12T21:05:10.678Z,5.30
2019-01-12T21:07:50.760Z,5.20
2019-01-12T21:10:37.462Z,5.20
2019-01-12T21:15:19.831Z,5.20
2019-01-12T21:17:48.083Z,5.10
2019-01-12T21:20:16.406Z,5.10
2019-01-12T21:22:44.646Z,5.20
2019-01-12T21:25:12.914Z,5.10
2019-01-12T21:27:41.425Z,5.20
2019-01-12T21:30:13.190Z,5.10
2019-01-12T21:32:41.546Z,5.20
2019-01-12T21:35:09.842Z,5.20
2019-01-12T21:37:38.171Z,5.20
2019-01-12T21:40:07.100Z,5.30
2019-01-12T21:42:35.423Z,5.30
2019-01-12T21:45:04.546Z,5.30
2019-01-12T21:47:32.782Z,5.30
2019-01-12T21:50:01.055Z,5.40
2019-01-12T21:52:29.503Z,5.30
2019-01-12T21:54:57.779Z,5.40
2019-01-12T21:57:26.018Z,5.40
2019-01-12T21:59:54.292Z,5.40
2019-01-12T22:02:23.414Z,5.40
2019-01-12T22:04:51.671Z,5.40
2019-01-12T22:07:19.966Z,5.40
2019-01-12T22:09:48.242Z,5.40
2019-01-12T22:12:16.527Z,5.40
2019-01-12T22:14:44.884Z,5.40
2019-01-12T22:17:13.110Z,5.40
2019-01-12T22:19:41.372Z,5.50
2019-01-12T22:22:09.687Z,5.50
2019-01-12T22:24:37.907Z,5.50
2019-01-12T22:27:06.127Z,5.50
2019-01-12T22:29:34.323Z,5.50
2019-01-12T22:32:02.578Z,5.50
2019-01-12T22:34:30.894Z,5.60
2019-01-12T22:36:59.270Z,5.60
2019-01-12T22:39:27.686Z,5.60
2019-01-12T22:41:55.998Z,5.60
2019-01-12T22:44:24.283Z,5.70
2019-01-12T22:46:52.860Z,5.60
2019-01-12T22:49:21.110Z,5.60
2019-01-12T22:51:49.380Z,5.60
2019-01-12T22:54:17.697Z,5.60
2019-01-12T22:56:45.883Z,5.60
2019-01-12T22:59:14.094Z,5.60
2019-01-12T23:01:55.563Z,5.60
2019-01-12T23:04:25.538Z,5.60
2019-01-12T23:06:53.875Z,5.70
2019-01-12T23:09:22.170Z,5.70
2019-01-12T23:11:50.542Z,5.70
2019-01-12T23:14:18.807Z,5.70
2019-01-12T23:16:47.082Z,5.60
2019-01-12T23:19:15.441Z,5.70
2019-01-12T23:21:43.718Z,5.60
2019-01-12T23:24:12.022Z,5.70
2019-01-12T23:26:40.276Z,5.70
2019-01-12T23:29:08.578Z,5.80
2019-01-12T23:31:36.833Z,5.70
2019-01-12T23:34:05.279Z,5.70
2019-01-12T23:36:40.317Z,5.70
2019-01-12T23:39:09.629Z,5.80
2019-01-12T23:41:38.596Z,5.70
2019-01-12T23:44:06.998Z,5.70
2019-01-12T23:46:41.982Z,5.70
2019-01-12T23:49:10.544Z,5.70
2019-01-12T23:51:38.846Z,5.70
2019-01-12T23:54:07.218Z,5.70
2019-01-12T23:56:35.479Z,5.70
2019-01-12T23:59:03.798Z,5.80
